createdAt,value
2018-08-03T06:00:09.331Z,25.70
2018-08-03T06:02:37.971Z,25.80
2018-08-03T06:05:11.226Z,25.90
2018-08-03T06:07:40.154Z,25.90
2018-08-03T06:10:08.717Z,26.00
2018-08-03T06:12:37.137Z,26.10
2018-08-03T06:15:07.638Z,26.20
2018-08-03T06:17:36.049Z,26.30
2018-08-03T06:20:06.017Z,26.50
2018-08-03T06:22:34.362Z,26.60
2018-08-03T06:25:02.701Z,26.70
2018-08-03T06:27:30.985Z,26.80
2018-08-03T06:29:59.217Z,26.90
2018-08-03T06:32:27.484Z,27.00
2018-08-03T06:34:55.774Z,27.00
2018-08-03T06:37:24.121Z,27.10
2018-08-03T06:39:52.329Z,27.20
2018-08-03T06:42:20.515Z,27.30
2018-08-03T06:44:48.709Z,27.40
2018-08-03T06:47:17.018Z,27.50
2018-08-03T06:49:45.291Z,27.60
2018-08-03T06:52:13.488Z,27.70
2018-08-03T06:54:41.652Z,27.80
2018-08-03T06:57:09.899Z,27.80
2018-08-03T06:59:38.108Z,27.90
2018-08-03T07:02:06.439Z,28.00
2018-08-03T07:04:34.722Z,28.10
2018-08-03T07:07:02.840Z,28.20
2018-08-03T07:09:31.012Z,28.20
2018-08-03T07:11:59.116Z,28.30
2018-08-03T07:14:27.353Z,28.40
2018-08-03T07:16:55.473Z,28.50
2018-08-03T07:19:23.638Z,28.60
2018-08-03T07:21:51.837Z,28.60
2018-08-03T07:24:20.054Z,28.70
2018-08-03T07:26:48.321Z,28.70
2018-08-03T07:29:16.404Z,28.80
2018-08-03T07:31:44.597Z,28.80
2018-08-03T07:34:12.760Z,28.90
2018-08-03T07:36:40.964Z,29.00
2018-08-03T07:39:09.581Z,29.10
2018-08-03T07:41:37.784Z,29.20
2018-08-03T07:44:05.976Z,29.30
2018-08-03T07:46:34.161Z,29.30
2018-08-03T07:49:02.325Z,29.40
2018-08-03T07:51:30.592Z,29.50
2018-08-03T07:53:58.716Z,29.50
2018-08-03T07:56:26.896Z,29.50
2018-08-03T07:58:55.009Z,29.60
2018-08-03T08:01:23.156Z,29.60
2018-08-03T08:03:51.383Z,29.70
2018-08-03T08:06:19.590Z,29.80
2018-08-03T08:08:47.703Z,29.80
2018-08-03T08:11:15.834Z,29.80
2018-08-03T08:13:43.976Z,29.80
2018-08-03T08:16:12.189Z,29.90
2018-08-03T08:18:40.411Z,30.00
2018-08-03T08:21:08.651Z,30.00
2018-08-03T08:23:36.840Z,30.10
2018-08-03T08:26:05.134Z,30.10
2018-08-03T08:28:33.390Z,30.20
2018-08-03T08:31:01.534Z,30.20
2018-08-03T08:33:29.677Z,30.30
2018-08-03T08:35:57.864Z,30.30
2018-08-03T08:38:26.087Z,30.40
2018-08-03T08:40:54.388Z,30.40
2018-08-03T08:43:22.582Z,30.50
2018-08-03T08:45:50.665Z,30.50
2018-08-03T08:48:18.844Z,30.60
2018-08-03T08:50:46.977Z,30.60
2018-08-03T08:53:15.249Z,30.60
2018-08-03T08:55:43.431Z,30.70
2018-08-03T08:58:11.640Z,30.80
2018-08-03T09:00:39.889Z,30.90
2018-08-03T09:03:08.104Z,31.00
2018-08-03T09:05:36.381Z,31.10
2018-08-03T09:08:04.522Z,31.20
2018-08-03T09:10:32.731Z,31.40
2018-08-03T09:13:00.882Z,31.50
2018-08-03T09:15:29.054Z,31.60
2018-08-03T09:17:57.296Z,31.90
2018-08-03T09:20:25.475Z,32.10
2018-08-03T09:22:53.621Z,32.40
2018-08-03T09:25:21.839Z,32.70
2018-08-03T09:27:50.240Z,33.00
2018-08-03T09:30:18.469Z,33.30
2018-08-03T09:32:46.672Z,33.60
2018-08-03T09:35:14.919Z,34.00
2018-08-03T09:37:43.107Z,34.40
2018-08-03T09:40:11.331Z,34.80
2018-08-03T09:42:39.529Z,35.20
2018-08-03T09:45:07.681Z,35.50
2018-08-03T09:47:35.828Z,35.80
2018-08-03T09:50:04.326Z,36.20
2018-08-03T09:52:32.747Z,36.50
2018-08-03T09:55:00.933Z,36.80
2018-08-03T09:57:29.105Z,37.20
2018-08-03T09:59:57.356Z,37.50
2018-08-03T10:02:25.500Z,37.70
2018-08-03T10:04:53.704Z,38.00
2018-08-03T10:07:21.931Z,38.20
2018-08-03T10:09:50.199Z,38.40
2018-08-03T10:12:18.406Z,38.50
2018-08-03T10:14:46.623Z,38.40
2018-08-03T10:17:14.745Z,38.10
2018-08-03T10:19:42.969Z,37.70
2018-08-03T10:22:11.126Z,37.20
2018-08-03T10:24:39.280Z,36.70
2018-08-03T10:27:07.412Z,36.30
2018-08-03T10:29:35.645Z,35.80
2018-08-03T10:32:03.750Z,35.50
2018-08-03T10:34:31.858Z,35.20
2018-08-03T10:37:00.031Z,35.00
2018-08-03T10:39:28.144Z,34.70
2018-08-03T10:41:56.261Z,34.50
2018-08-03T10:44:24.490Z,34.30
2018-08-03T10:46:52.660Z,34.20
2018-08-03T10:49:20.909Z,34.10
2018-08-03T10:51:49.049Z,34.00
2018-08-03T10:54:17.264Z,33.90
2018-08-03T10:56:45.490Z,33.80
2018-08-03T10:59:13.679Z,33.70
2018-08-03T11:01:41.814Z,33.70
2018-08-03T11:04:09.975Z,33.70
2018-08-03T11:06:38.225Z,33.70
2018-08-03T11:09:07.714Z,33.60
2018-08-03T11:11:35.952Z,33.60
2018-08-03T11:14:04.173Z,33.60
2018-08-03T11:16:32.588Z,33.50
2018-08-03T11:19:00.712Z,33.50
2018-08-03T11:21:28.937Z,33.50
2018-08-03T11:23:57.113Z,33.60
2018-08-03T11:26:25.249Z,33.60
2018-08-03T11:28:53.436Z,33.70
2018-08-03T11:31:21.600Z,33.70
2018-08-03T11:33:49.819Z,33.70
2018-08-03T11:36:18.074Z,33.80
2018-08-03T11:38:46.209Z,33.70
2018-08-03T11:41:14.361Z,33.80
2018-08-03T11:43:42.561Z,33.90
2018-08-03T11:46:10.760Z,33.90
2018-08-03T11:48:38.999Z,34.00
2018-08-03T11:51:07.222Z,34.00
2018-08-03T11:53:35.467Z,34.00
2018-08-03T11:56:03.690Z,34.00
2018-08-03T11:58:32.010Z,34.10
2018-08-03T12:01:00.201Z,34.10
2018-08-03T12:03:28.423Z,34.10
2018-08-03T12:05:56.583Z,34.20
2018-08-03T12:08:24.929Z,34.20
2018-08-03T12:10:53.140Z,34.20
2018-08-03T12:13:21.452Z,34.20
2018-08-03T12:15:49.670Z,34.30
2018-08-03T12:18:17.864Z,34.30
2018-08-03T12:20:46.865Z,34.30
2018-08-03T12:23:15.176Z,34.30
2018-08-03T12:25:43.702Z,34.30
2018-08-03T12:28:12.239Z,34.30
2018-08-03T12:30:40.405Z,34.30
2018-08-03T12:33:08.774Z,34.30
2018-08-03T12:35:37.014Z,34.30
2018-08-03T12:38:05.173Z,34.30
2018-08-03T12:40:33.364Z,34.30
2018-08-03T12:43:01.597Z,34.30
2018-08-03T12:45:33.996Z,34.30
2018-08-03T12:47:57.979Z,34.30
2018-08-03T12:50:26.126Z,34.40
2018-08-03T12:52:54.409Z,34.40
2018-08-03T12:55:22.540Z,34.30
2018-08-03T12:57:50.729Z,34.40
2018-08-03T13:00:18.931Z,34.30
2018-08-03T13:02:47.119Z,34.40
2018-08-03T13:05:15.261Z,34.40
2018-08-03T13:07:43.477Z,34.40
2018-08-03T13:10:11.644Z,34.40
2018-08-03T13:12:39.868Z,34.50
2018-08-03T13:15:08.796Z,34.50
2018-08-03T13:17:36.953Z,34.60
2018-08-03T13:20:05.444Z,34.60
2018-08-03T13:22:33.632Z,34.70
2018-08-03T13:25:01.805Z,34.70
2018-08-03T13:27:30.000Z,34.70
2018-08-03T13:29:58.099Z,34.70
2018-08-03T13:32:26.252Z,34.80
2018-08-03T13:34:54.591Z,34.80
2018-08-03T13:37:22.753Z,34.90
2018-08-03T13:39:51.017Z,34.90
2018-08-03T13:42:19.157Z,34.90
2018-08-03T13:44:47.344Z,34.90
2018-08-03T13:47:15.492Z,35.00
2018-08-03T13:49:43.676Z,35.00
2018-08-03T13:52:11.902Z,34.90
2018-08-03T13:54:40.030Z,35.00
2018-08-03T13:57:08.248Z,35.00
2018-08-03T13:59:36.400Z,35.00
2018-08-03T14:02:18.184Z,35.10
2018-08-03T14:04:46.369Z,35.10
2018-08-03T14:07:14.681Z,35.10
2018-08-03T14:09:42.831Z,35.00
2018-08-03T14:12:11.031Z,35.00
2018-08-03T14:14:39.942Z,35.00
2018-08-03T14:17:08.126Z,35.00
2018-08-03T14:19:36.309Z,35.10
2018-08-03T14:22:04.777Z,35.00
2018-08-03T14:24:32.978Z,35.00
2018-08-03T14:27:01.247Z,35.10
2018-08-03T14:29:29.389Z,35.10
2018-08-03T14:31:57.577Z,35.20
2018-08-03T14:34:25.733Z,35.20
2018-08-03T14:36:54.030Z,35.20
2018-08-03T14:39:22.313Z,35.20
2018-08-03T14:41:50.501Z,35.20
2018-08-03T14:44:18.642Z,35.30
2018-08-03T14:46:46.797Z,35.30
2018-08-03T14:49:14.967Z,35.30
2018-08-03T14:51:43.183Z,35.30
2018-08-03T14:54:11.331Z,35.30
2018-08-03T14:56:39.518Z,35.30
2018-08-03T14:59:07.640Z,35.40
2018-08-03T15:01:35.821Z,35.40
2018-08-03T15:04:04.024Z,35.40
2018-08-03T15:06:32.149Z,35.40
2018-08-03T15:09:00.317Z,35.40
2018-08-03T15:11:28.457Z,35.40
2018-08-03T15:13:56.639Z,35.40
2018-08-03T15:16:24.836Z,35.40
2018-08-03T15:18:53.074Z,35.50
2018-08-03T15:21:21.278Z,35.50
2018-08-03T15:23:49.428Z,35.60
2018-08-03T15:26:17.601Z,35.60
2018-08-03T15:28:45.832Z,35.60
2018-08-03T15:31:14.005Z,35.60
2018-08-03T15:33:42.195Z,35.60
2018-08-03T15:36:10.524Z,35.60
2018-08-03T15:38:38.677Z,35.70
2018-08-03T15:41:07.018Z,35.70
2018-08-03T15:43:35.188Z,35.70
2018-08-03T15:46:03.345Z,35.70
2018-08-03T15:48:31.478Z,35.70
2018-08-03T15:50:59.634Z,35.70
2018-08-03T15:53:27.845Z,35.70
2018-08-03T15:55:56.018Z,35.70
2018-08-03T15:58:24.281Z,35.70
2018-08-03T16:00:52.529Z,35.70
2018-08-03T16:03:20.739Z,35.70
2018-08-03T16:05:48.957Z,35.70
2018-08-03T16:08:17.195Z,35.70
2018-08-03T16:10:45.332Z,35.70
2018-08-03T16:13:13.544Z,35.70
2018-08-03T16:15:41.753Z,35.70
2018-08-03T16:18:09.989Z,35.70
2018-08-03T16:20:38.248Z,35.70
2018-08-03T16:23:06.403Z,35.60
2018-08-03T16:25:34.629Z,35.60
2018-08-03T16:28:02.852Z,35.60
2018-08-03T16:30:31.058Z,35.60
2018-08-03T16:32:59.450Z,35.60
2018-08-03T16:35:27.608Z,35.60
2018-08-03T16:37:55.823Z,35.60
2018-08-03T16:40:24.040Z,35.60
2018-08-03T16:42:52.229Z,35.60
2018-08-03T16:45:20.413Z,35.60
2018-08-03T16:47:48.575Z,35.60
2018-08-03T16:50:16.796Z,35.50
2018-08-03T16:52:45.005Z,35.50
2018-08-03T16:55:13.316Z,35.50
2018-08-03T16:57:41.503Z,35.50
2018-08-03T17:00:09.688Z,35.50
2018-08-03T17:02:37.864Z,35.50
2018-08-03T17:05:06.108Z,35.50
2018-08-03T17:07:34.329Z,35.50
2018-08-03T17:10:02.469Z,35.50
2018-08-03T17:12:30.632Z,35.40
2018-08-03T17:14:58.766Z,35.40
2018-08-03T17:17:26.940Z,35.40
2018-08-03T17:19:55.161Z,35.40
2018-08-03T17:22:23.328Z,35.40
2018-08-03T17:24:51.685Z,35.40
2018-08-03T17:27:19.859Z,35.30
2018-08-03T17:29:48.081Z,35.30
2018-08-03T17:32:16.300Z,35.30
2018-08-03T17:34:44.456Z,35.30
2018-08-03T17:37:12.623Z,35.30
2018-08-03T17:39:40.794Z,35.30
2018-08-03T17:42:08.989Z,35.30
2018-08-03T17:44:37.199Z,35.20
2018-08-03T17:47:05.426Z,35.20
2018-08-03T17:49:33.693Z,35.10
2018-08-03T17:52:01.849Z,35.10
2018-08-03T17:54:29.991Z,35.00
2018-08-03T17:56:58.208Z,35.00
2018-08-03T17:59:26.381Z,34.90
2018-08-03T18:01:54.545Z,34.90
2018-08-03T18:04:22.725Z,34.80
2018-08-03T18:06:50.912Z,34.80
2018-08-03T18:09:19.200Z,34.70
2018-08-03T18:11:48.526Z,34.60
2018-08-03T18:14:16.685Z,34.60
2018-08-03T18:16:44.872Z,34.50
2018-08-03T18:19:13.074Z,34.40
2018-08-03T18:21:41.326Z,34.40
2018-08-03T18:24:09.612Z,34.30
2018-08-03T18:26:37.861Z,34.20
2018-08-03T18:29:06.086Z,34.10
2018-08-03T18:31:34.180Z,34.00
2018-08-03T18:34:02.340Z,34.00
2018-08-03T18:36:30.576Z,33.90
2018-08-03T18:38:58.713Z,33.80
2018-08-03T18:41:26.899Z,33.70
2018-08-03T18:43:55.094Z,33.60
2018-08-03T18:46:23.305Z,33.50
2018-08-03T18:48:51.472Z,33.40
2018-08-03T18:51:19.696Z,33.30
2018-08-03T18:53:47.843Z,33.30
2018-08-03T18:56:15.994Z,33.10
2018-08-03T18:58:44.321Z,33.10
2018-08-03T19:01:12.520Z,33.00
2018-08-03T19:03:40.672Z,32.90
2018-08-03T19:06:08.776Z,32.80
2018-08-03T19:08:37.056Z,32.70
2018-08-03T19:11:05.234Z,32.60
2018-08-03T19:13:33.413Z,32.50
2018-08-03T19:16:01.540Z,32.40
2018-08-03T19:18:29.774Z,32.40
2018-08-03T19:20:57.929Z,32.30
2018-08-03T19:23:26.161Z,32.20
2018-08-03T19:25:54.346Z,32.20
2018-08-03T19:28:22.536Z,32.10
2018-08-03T19:30:50.733Z,32.00
2018-08-03T19:33:18.868Z,31.90
2018-08-03T19:35:47.093Z,31.90
2018-08-03T19:38:15.277Z,31.80
2018-08-03T19:40:43.498Z,31.70
2018-08-03T19:43:11.660Z,31.60
2018-08-03T19:45:39.833Z,31.50
2018-08-03T19:48:08.063Z,31.40
2018-08-03T19:50:36.264Z,31.30
2018-08-03T19:53:04.552Z,31.20
2018-08-03T19:55:32.709Z,31.10
2018-08-03T19:58:00.889Z,31.10
2018-08-03T20:00:29.156Z,31.00
2018-08-03T20:02:57.299Z,30.90
2018-08-03T20:05:25.540Z,30.80
2018-08-03T20:07:53.680Z,30.80
2018-08-03T20:10:21.844Z,30.70
2018-08-03T20:12:50.100Z,30.60
2018-08-03T20:15:18.256Z,30.50
2018-08-03T20:17:46.450Z,30.50
2018-08-03T20:20:14.661Z,30.40
2018-08-03T20:22:42.860Z,30.30
2018-08-03T20:25:11.173Z,30.20
2018-08-03T20:27:39.372Z,30.20
2018-08-03T20:30:07.852Z,30.10
2018-08-03T20:32:36.015Z,30.00
2018-08-03T20:35:04.322Z,30.00
2018-08-03T20:37:32.556Z,29.90
2018-08-03T20:40:00.666Z,29.80
2018-08-03T20:42:28.868Z,29.70
2018-08-03T20:44:57.071Z,29.70
2018-08-03T20:47:25.220Z,29.60
2018-08-03T20:49:53.405Z,29.60
2018-08-03T20:52:21.661Z,29.50
2018-08-03T20:54:49.881Z,29.40
2018-08-03T20:57:18.048Z,29.40
2018-08-03T20:59:46.181Z,29.30
2018-08-03T21:02:14.427Z,29.30
2018-08-03T21:04:42.610Z,29.20
2018-08-03T21:07:10.751Z,29.20
2018-08-03T21:09:38.947Z,29.10
2018-08-03T21:12:07.128Z,29.00
2018-08-03T21:14:35.365Z,29.00
2018-08-03T21:17:03.525Z,28.90
2018-08-03T21:19:31.664Z,28.80
2018-08-03T21:21:59.851Z,28.80
2018-08-03T21:24:28.065Z,28.70
2018-08-03T21:26:56.305Z,28.70
2018-08-03T21:29:24.456Z,28.60
2018-08-03T21:31:52.592Z,28.60
2018-08-03T21:34:20.772Z,28.60
2018-08-03T21:36:48.976Z,28.50
2018-08-03T21:39:17.272Z,28.50
2018-08-03T21:41:45.464Z,28.40
2018-08-03T21:44:13.642Z,28.40
2018-08-03T21:46:41.797Z,28.30
2018-08-03T21:49:10.012Z,28.30
2018-08-03T21:51:38.279Z,28.30
2018-08-03T21:54:06.485Z,28.20
2018-08-03T21:56:34.693Z,28.10
2018-08-03T21:59:02.946Z,28.10
2018-08-03T22:01:31.320Z,28.10
2018-08-03T22:03:59.686Z,28.00
2018-08-03T22:06:27.934Z,28.00
2018-08-03T22:08:56.182Z,27.90
2018-08-03T22:11:24.502Z,27.90
2018-08-03T22:13:52.683Z,27.80
2018-08-03T22:16:20.978Z,27.80
2018-08-03T22:18:49.275Z,27.70
2018-08-03T22:21:17.380Z,27.60
2018-08-03T22:23:45.559Z,27.60
2018-08-03T22:26:13.765Z,27.50
2018-08-03T22:28:42.004Z,27.50
2018-08-03T22:31:10.194Z,27.50
2018-08-03T22:33:38.431Z,27.50
2018-08-03T22:36:06.744Z,27.40
2018-08-03T22:38:34.976Z,27.40
2018-08-03T22:41:04.071Z,27.40
2018-08-03T22:43:32.245Z,27.40
2018-08-03T22:46:00.396Z,27.40
2018-08-03T22:48:28.596Z,27.40
2018-08-03T22:50:56.772Z,27.40
2018-08-03T22:53:25.040Z,27.30
2018-08-03T22:55:53.227Z,27.30
2018-08-03T22:58:21.493Z,27.30
2018-08-03T23:00:49.692Z,27.30
2018-08-03T23:03:17.901Z,27.30
2018-08-03T23:05:46.167Z,27.30
2018-08-03T23:08:14.412Z,27.20
2018-08-03T23:10:42.524Z,27.20
2018-08-03T23:13:10.889Z,27.20
2018-08-03T23:15:39.172Z,27.20
2018-08-03T23:18:07.470Z,27.20
2018-08-03T23:20:35.769Z,27.10
2018-08-03T23:23:04.252Z,27.10
2018-08-03T23:25:32.537Z,27.10
2018-08-03T23:28:00.817Z,27.10
2018-08-03T23:30:29.222Z,27.00
2018-08-03T23:32:57.520Z,27.00
2018-08-03T23:35:25.761Z,27.00
2018-08-03T23:37:53.969Z,27.00
2018-08-03T23:40:22.507Z,26.90
2018-08-03T23:42:50.856Z,26.90
2018-08-03T23:45:19.225Z,26.90
2018-08-03T23:47:47.549Z,26.90
2018-08-03T23:50:17.518Z,26.90
2018-08-03T23:52:46.838Z,26.90
2018-08-03T23:55:16.058Z,26.80
2018-08-03T23:57:44.569Z,26.80
